sensor_id;sensor_type;location;lat;lon;timestamp;P1;durP1;ratioP1;P2;durP2;ratioP2
3527;SDS011;1778;47.966;7.854;2023-04-24T00:00:33;1.90;;;1.90;;
3527;SDS011;1778;47.966;7.854;2023-04-24T00:01:35;1.60;;;1.60;;
3527;SDS011;1778;47.966;7.854;2023-04-24T00:02:37;1.40;;;1.40;;
3527;SDS011;1778;47.966;7.854;2023-04-24T00:03:39;1.60;;;1.60;;
3527;SDS011;1778;47.966;7.854;2023-04-24T00:04:42;1.87;;;1.77;;
3527;SDS011;1778;47.966;7.854;2023-04-24T00:05:45;1.97;;;1.97;;
3527;SDS011;1778;47.966;7.854;2023-04-24T00:06:47;1.60;;;1.60;;
3527;SDS011;1778;47.966;7.854;2023-04-24T00:07:55;1.40;;;1.40;;
3527;SDS011;1778;47.966;7.854;2023-04-24T00:08:56;1.50;;;1.50;;
3527;SDS011;1778;47.966;7.854;2023-04-24T00:09:58;1.50;;;1.50;;
3527;SDS011;1778;47.966;7.854;2023-04-24T00:11:00;1.57;;;1.57;;
3527;SDS011;1778;47.966;7.854;2023-04-24T00:12:01;2.00;;;1.97;;
3527;SDS011;1778;47.966;7.854;2023-04-24T00:13:05;1.70;;;1.70;;
3527;SDS011;1778;47.966;7.854;2023-04-24T00:14:06;1.70;;;1.70;;
3527;SDS011;1778;47.966;7.854;2023-04-24T00:15:09;1.70;;;1.60;;
3527;SDS011;1778;47.966;7.854;2023-04-24T00:16:11;1.50;;;1.50;;
3527;SDS011;1778;47.966;7.854;2023-04-24T00:17:12;1.70;;;1.70;;
3527;SDS011;1778;47.966;7.854;2023-04-24T00:18:14;1.50;;;1.50;;
3527;SDS011;1778;47.966;7.854;2023-04-24T00:19:16;1.50;;;1.50;;
3527;SDS011;1778;47.966;7.854;2023-04-24T00:20:17;1.30;;;1.30;;
3527;SDS011;1778;47.966;7.854;2023-04-24T00:21:20;2.47;;;1.73;;
3527;SDS011;1778;47.966;7.854;2023-04-24T00:22:22;1.60;;;1.60;;
3527;SDS011;1778;47.966;7.854;2023-04-24T00:23:24;1.70;;;1.70;;
3527;SDS011;1778;47.966;7.854;2023-04-24T00:24:26;1.67;;;1.67;;
3527;SDS011;1778;47.966;7.854;2023-04-24T00:25:27;1.40;;;1.40;;
3527;SDS011;1778;47.966;7.854;2023-04-24T00:26:29;1.40;;;1.40;;
3527;SDS011;1778;47.966;7.854;2023-04-24T00:27:32;1.37;;;1.37;;
3527;SDS011;1778;47.966;7.854;2023-04-24T00:28:33;1.80;;;1.70;;
3527;SDS011;1778;47.966;7.854;2023-04-24T00:29:37;1.50;;;1.50;;
3527;SDS011;1778;47.966;7.854;2023-04-24T00:30:39;1.43;;;1.43;;
3527;SDS011;1778;47.966;7.854;2023-04-24T00:31:41;2.30;;;1.63;;
3527;SDS011;1778;47.966;7.854;2023-04-24T00:32:43;1.40;;;1.40;;
3527;SDS011;1778;47.966;7.854;2023-04-24T00:33:44;1.50;;;1.50;;
3527;SDS011;1778;47.966;7.854;2023-04-24T00:34:46;1.30;;;1.30;;
3527;SDS011;1778;47.966;7.854;2023-04-24T00:35:49;1.40;;;1.40;;
3527;SDS011;1778;47.966;7.854;2023-04-24T00:36:50;1.60;;;1.60;;
3527;SDS011;1778;47.966;7.854;2023-04-24T00:37:53;1.40;;;1.40;;
3527;SDS011;1778;47.966;7.854;2023-04-24T00:38:54;1.40;;;1.40;;
3527;SDS011;1778;47.966;7.854;2023-04-24T00:39:57;1.50;;;1.50;;
3527;SDS011;1778;47.966;7.854;2023-04-24T00:40:59;1.70;;;1.60;;
3527;SDS011;1778;47.966;7.854;2023-04-24T00:42:01;2.50;;;1.53;;
3527;SDS011;1778;47.966;7.854;2023-04-24T00:43:02;1.53;;;1.53;;
3527;SDS011;1778;47.966;7.854;2023-04-24T00:44:04;1.60;;;1.60;;
3527;SDS011;1778;47.966;7.854;2023-04-24T00:45:06;1.50;;;1.50;;
3527;SDS011;1778;47.966;7.854;2023-04-24T00:46:08;1.50;;;1.50;;
3527;SDS011;1778;47.966;7.854;2023-04-24T00:47:11;1.60;;;1.60;;
3527;SDS011;1778;47.966;7.854;2023-04-24T00:48:14;1.50;;;1.50;;
3527;SDS011;1778;47.966;7.854;2023-04-24T00:49:20;1.30;;;1.30;;
3527;SDS011;1778;47.966;7.854;2023-04-24T00:50:24;1.47;;;1.40;;
3527;SDS011;1778;47.966;7.854;2023-04-24T00:51:26;1.60;;;1.60;;
3527;SDS011;1778;47.966;7.854;2023-04-24T00:52:28;1.50;;;1.50;;
3527;SDS011;1778;47.966;7.854;2023-04-24T00:53:32;1.83;;;1.83;;
3527;SDS011;1778;47.966;7.854;2023-04-24T00:54:36;1.30;;;1.30;;
3527;SDS011;1778;47.966;7.854;2023-04-24T00:55:38;1.40;;;1.40;;
3527;SDS011;1778;47.966;7.854;2023-04-24T00:56:40;1.57;;;1.57;;
3527;SDS011;1778;47.966;7.854;2023-04-24T00:57:43;1.50;;;1.50;;
3527;SDS011;1778;47.966;7.854;2023-04-24T00:58:46;1.20;;;1.20;;
3527;SDS011;1778;47.966;7.854;2023-04-24T00:59:48;1.30;;;1.30;;
3527;SDS011;1778;47.966;7.854;2023-04-24T01:00:50;1.30;;;1.30;;
3527;SDS011;1778;47.966;7.854;2023-04-24T01:01:54;1.90;;;1.80;;
3527;SDS011;1778;47.966;7.854;2023-04-24T01:02:57;1.37;;;1.37;;
3527;SDS011;1778;47.966;7.854;2023-04-24T01:04:02;1.70;;;1.60;;
3527;SDS011;1778;47.966;7.854;2023-04-24T01:05:04;1.60;;;1.60;;
3527;SDS011;1778;47.966;7.854;2023-04-24T01:06:07;1.27;;;1.27;;
3527;SDS011;1778;47.966;7.854;2023-04-24T01:07:11;1.30;;;1.30;;
3527;SDS011;1778;47.966;7.854;2023-04-24T01:08:13;1.83;;;1.70;;
3527;SDS011;1778;47.966;7.854;2023-04-24T01:09:16;1.40;;;1.40;;
3527;SDS011;1778;47.966;7.854;2023-04-24T01:10:19;1.57;;;1.57;;
3527;SDS011;1778;47.966;7.854;2023-04-24T01:11:21;1.20;;;1.20;;
3527;SDS011;1778;47.966;7.854;2023-04-24T01:12:23;1.57;;;1.57;;
3527;SDS011;1778;47.966;7.854;2023-04-24T01:13:25;1.50;;;1.50;;
3527;SDS011;1778;47.966;7.854;2023-04-24T01:14:28;1.23;;;1.23;;
3527;SDS011;1778;47.966;7.854;2023-04-24T01:15:29;1.40;;;1.40;;
3527;SDS011;1778;47.966;7.854;2023-04-24T01:16:31;1.53;;;1.53;;
3527;SDS011;1778;47.966;7.854;2023-04-24T01:17:34;1.17;;;1.17;;
3527;SDS011;1778;47.966;7.854;2023-04-24T01:18:37;3.27;;;1.60;;
3527;SDS011;1778;47.966;7.854;2023-04-24T01:19:39;1.60;;;1.60;;
3527;SDS011;1778;47.966;7.854;2023-04-24T01:20:42;1.50;;;1.50;;
3527;SDS011;1778;47.966;7.854;2023-04-24T01:21:46;1.43;;;1.43;;
3527;SDS011;1778;47.966;7.854;2023-04-24T01:22:52;1.53;;;1.53;;
3527;SDS011;1778;47.966;7.854;2023-04-24T01:23:56;1.53;;;1.53;;
3527;SDS011;1778;47.966;7.854;2023-04-24T01:24:58;1.30;;;1.30;;
3527;SDS011;1778;47.966;7.854;2023-04-24T01:26:00;1.30;;;1.30;;
3527;SDS011;1778;47.966;7.854;2023-04-24T01:27:02;1.30;;;1.30;;
3527;SDS011;1778;47.966;7.854;2023-04-24T01:28:04;1.80;;;1.80;;
3527;SDS011;1778;47.966;7.854;2023-04-24T01:29:06;1.60;;;1.60;;
3527;SDS011;1778;47.966;7.854;2023-04-24T01:30:08;1.50;;;1.50;;
3527;SDS011;1778;47.966;7.854;2023-04-24T01:31:10;1.30;;;1.30;;
3527;SDS011;1778;47.966;7.854;2023-04-24T01:32:12;1.50;;;1.50;;
3527;SDS011;1778;47.966;7.854;2023-04-24T01:33:14;2.93;;;1.50;;
3527;SDS011;1778;47.966;7.854;2023-04-24T01:34:15;1.50;;;1.50;;
3527;SDS011;1778;47.966;7.854;2023-04-24T01:35:18;1.27;;;1.27;;
3527;SDS011;1778;47.966;7.854;2023-04-24T01:36:20;1.57;;;1.57;;
3527;SDS011;1778;47.966;7.854;2023-04-24T01:37:26;1.80;;;1.80;;
3527;SDS011;1778;47.966;7.854;2023-04-24T01:38:28;1.60;;;1.60;;
3527;SDS011;1778;47.966;7.854;2023-04-24T01:39:29;1.50;;;1.50;;
3527;SDS011;1778;47.966;7.854;2023-04-24T01:40:31;1.40;;;1.40;;
3527;SDS011;1778;47.966;7.854;2023-04-24T01:41:33;1.20;;;1.20;;
3527;SDS011;1778;47.966;7.854;2023-04-24T01:42:35;1.53;;;1.53;;
3527;SDS011;1778;47.966;7.854;2023-04-24T01:43:37;1.80;;;1.80;;
3527;SDS011;1778;47.966;7.854;2023-04-24T01:44:39;1.40;;;1.40;;
3527;SDS011;1778;47.966;7.854;2023-04-24T01:45:41;1.53;;;1.53;;
3527;SDS011;1778;47.966;7.854;2023-04-24T01:46:43;1.20;;;1.20;;
3527;SDS011;1778;47.966;7.854;2023-04-24T01:47:45;3.03;;;1.60;;
3527;SDS011;1778;47.966;7.854;2023-04-24T01:48:47;1.47;;;1.47;;
3527;SDS011;1778;47.966;7.854;2023-04-24T01:49:50;1.23;;;1.23;;
3527;SDS011;1778;47.966;7.854;2023-04-24T01:50:51;1.70;;;1.60;;
3527;SDS011;1778;47.966;7.854;2023-04-24T01:51:54;1.40;;;1.40;;
3527;SDS011;1778;47.966;7.854;2023-04-24T01:52:55;1.60;;;1.50;;
3527;SDS011;1778;47.966;7.854;2023-04-24T01:53:57;1.40;;;1.40;;
3527;SDS011;1778;47.966;7.854;2023-04-24T01:55:01;1.53;;;1.53;;
3527;SDS011;1778;47.966;7.854;2023-04-24T01:56:06;1.23;;;1.23;;
3527;SDS011;1778;47.966;7.854;2023-04-24T01:57:08;1.37;;;1.37;;
3527;SDS011;1778;47.966;7.854;2023-04-24T01:58:09;1.33;;;1.33;;
3527;SDS011;1778;47.966;7.854;2023-04-24T01:59:11;1.30;;;1.30;;
3527;SDS011;1778;47.966;7.854;2023-04-24T02:00:13;1.50;;;1.50;;
3527;SDS011;1778;47.966;7.854;2023-04-24T02:01:17;1.13;;;1.13;;
3527;SDS011;1778;47.966;7.854;2023-04-24T02:02:22;1.30;;;1.30;;
3527;SDS011;1778;47.966;7.854;2023-04-24T02:03:30;1.33;;;1.33;;
3527;SDS011;1778;47.966;7.854;2023-04-24T02:04:32;1.60;;;1.50;;
3527;SDS011;1778;47.966;7.854;2023-04-24T02:05:34;1.50;;;1.50;;
3527;SDS011;1778;47.966;7.854;2023-04-24T02:06:36;1.33;;;1.33;;
3527;SDS011;1778;47.966;7.854;2023-04-24T02:07:38;1.13;;;1.13;;
3527;SDS011;1778;47.966;7.854;2023-04-24T02:08:41;1.60;;;1.50;;
3527;SDS011;1778;47.966;7.854;2023-04-24T02:09:43;1.87;;;1.77;;
3527;SDS011;1778;47.966;7.854;2023-04-24T02:10:45;1.50;;;1.50;;
3527;SDS011;1778;47.966;7.854;2023-04-24T02:11:46;1.37;;;1.37;;
3527;SDS011;1778;47.966;7.854;2023-04-24T02:12:48;1.40;;;1.40;;
3527;SDS011;1778;47.966;7.854;2023-04-24T02:13:49;1.43;;;1.43;;
3527;SDS011;1778;47.966;7.854;2023-04-24T02:14:52;1.37;;;1.37;;
3527;SDS011;1778;47.966;7.854;2023-04-24T02:15:54;1.27;;;1.27;;
3527;SDS011;1778;47.966;7.854;2023-04-24T02:16:57;1.40;;;1.33;;
3527;SDS011;1778;47.966;7.854;2023-04-24T02:17:58;1.60;;;1.60;;
3527;SDS011;1778;47.966;7.854;2023-04-24T02:19:00;1.50;;;1.50;;
3527;SDS011;1778;47.966;7.854;2023-04-24T02:20:02;1.60;;;1.60;;
3527;SDS011;1778;47.966;7.854;2023-04-24T02:21:05;1.40;;;1.40;;
3527;SDS011;1778;47.966;7.854;2023-04-24T02:22:08;2.27;;;2.07;;
3527;SDS011;1778;47.966;7.854;2023-04-24T02:23:11;1.77;;;1.67;;
3527;SDS011;1778;47.966;7.854;2023-04-24T02:24:14;1.43;;;1.43;;
3527;SDS011;1778;47.966;7.854;2023-04-24T02:25:16;1.53;;;1.53;;
3527;SDS011;1778;47.966;7.854;2023-04-24T02:26:18;1.33;;;1.33;;
3527;SDS011;1778;47.966;7.854;2023-04-24T02:27:19;1.60;;;1.50;;
3527;SDS011;1778;47.966;7.854;2023-04-24T02:28:21;1.50;;;1.50;;
3527;SDS011;1778;47.966;7.854;2023-04-24T02:29:24;1.53;;;1.53;;
3527;SDS011;1778;47.966;7.854;2023-04-24T02:30:25;1.57;;;1.57;;
3527;SDS011;1778;47.966;7.854;2023-04-24T02:31:27;1.27;;;1.27;;
3527;SDS011;1778;47.966;7.854;2023-04-24T02:32:28;3.20;;;1.50;;
3527;SDS011;1778;47.966;7.854;2023-04-24T02:33:31;1.60;;;1.60;;
3527;SDS011;1778;47.966;7.854;2023-04-24T02:34:33;2.60;;;1.63;;
3527;SDS011;1778;47.966;7.854;2023-04-24T02:35:34;1.60;;;1.60;;
3527;SDS011;1778;47.966;7.854;2023-04-24T02:36:36;1.87;;;1.87;;
3527;SDS011;1778;47.966;7.854;2023-04-24T02:37:38;1.30;;;1.30;;
3527;SDS011;1778;47.966;7.854;2023-04-24T02:38:39;1.13;;;1.13;;
3527;SDS011;1778;47.966;7.854;2023-04-24T02:39:41;1.43;;;1.30;;
3527;SDS011;1778;47.966;7.854;2023-04-24T02:40:43;1.30;;;1.30;;
3527;SDS011;1778;47.966;7.854;2023-04-24T02:41:44;1.40;;;1.40;;
3527;SDS011;1778;47.966;7.854;2023-04-24T02:42:46;1.40;;;1.40;;
3527;SDS011;1778;47.966;7.854;2023-04-24T02:43:47;1.40;;;1.40;;
3527;SDS011;1778;47.966;7.854;2023-04-24T02:44:49;1.33;;;1.33;;
3527;SDS011;1778;47.966;7.854;2023-04-24T02:45:52;1.60;;;1.50;;
3527;SDS011;1778;47.966;7.854;2023-04-24T02:46:53;1.60;;;1.60;;
3527;SDS011;1778;47.966;7.854;2023-04-24T02:47:56;1.87;;;1.77;;
3527;SDS011;1778;47.966;7.854;2023-04-24T02:48:58;1.60;;;1.60;;
3527;SDS011;1778;47.966;7.854;2023-04-24T02:50:00;1.53;;;1.50;;
3527;SDS011;1778;47.966;7.854;2023-04-24T02:51:02;1.50;;;1.50;;
3527;SDS011;1778;47.966;7.854;2023-04-24T02:52:04;1.57;;;1.57;;
3527;SDS011;1778;47.966;7.854;2023-04-24T02:53:05;1.50;;;1.50;;
3527;SDS011;1778;47.966;7.854;2023-04-24T02:54:07;1.30;;;1.30;;
3527;SDS011;1778;47.966;7.854;2023-04-24T02:55:10;1.30;;;1.30;;
3527;SDS011;1778;47.966;7.854;2023-04-24T02:56:12;1.63;;;1.63;;
3527;SDS011;1778;47.966;7.854;2023-04-24T02:57:14;1.60;;;1.60;;
3527;SDS011;1778;47.966;7.854;2023-04-24T02:58:17;1.60;;;1.60;;
3527;SDS011;1778;47.966;7.854;2023-04-24T02:59:20;1.50;;;1.50;;
3527;SDS011;1778;47.966;7.854;2023-04-24T03:00:22;1.30;;;1.30;;
3527;SDS011;1778;47.966;7.854;2023-04-24T03:01:24;1.43;;;1.43;;
3527;SDS011;1778;47.966;7.854;2023-04-24T03:02:26;1.60;;;1.50;;
3527;SDS011;1778;47.966;7.854;2023-04-24T03:03:28;1.40;;;1.40;;
3527;SDS011;1778;47.966;7.854;2023-04-24T03:04:30;1.63;;;1.63;;
3527;SDS011;1778;47.966;7.854;2023-04-24T03:05:31;1.57;;;1.57;;
3527;SDS011;1778;47.966;7.854;2023-04-24T03:06:33;1.60;;;1.40;;
3527;SDS011;1778;47.966;7.854;2023-04-24T03:07:36;1.50;;;1.50;;
3527;SDS011;1778;47.966;7.854;2023-04-24T03:08:38;1.70;;;1.60;;
3527;SDS011;1778;47.966;7.854;2023-04-24T03:09:40;1.57;;;1.57;;
3527;SDS011;1778;47.966;7.854;2023-04-24T03:10:41;6.00;;;1.80;;
3527;SDS011;1778;47.966;7.854;2023-04-24T03:11:45;1.73;;;1.63;;
3527;SDS011;1778;47.966;7.854;2023-04-24T03:12:46;1.60;;;1.50;;
3527;SDS011;1778;47.966;7.854;2023-04-24T03:13:48;1.70;;;1.70;;
3527;SDS011;1778;47.966;7.854;2023-04-24T03:14:50;1.63;;;1.63;;
3527;SDS011;1778;47.966;7.854;2023-04-24T03:15:52;1.50;;;1.50;;
3527;SDS011;1778;47.966;7.854;2023-04-24T03:16:55;2.33;;;2.20;;
3527;SDS011;1778;47.966;7.854;2023-04-24T03:17:56;2.47;;;1.50;;
3527;SDS011;1778;47.966;7.854;2023-04-24T03:18:58;1.70;;;1.70;;
3527;SDS011;1778;47.966;7.854;2023-04-24T03:20:03;1.50;;;1.50;;
3527;SDS011;1778;47.966;7.854;2023-04-24T03:21:07;1.30;;;1.30;;
3527;SDS011;1778;47.966;7.854;2023-04-24T03:22:09;1.43;;;1.43;;
3527;SDS011;1778;47.966;7.854;2023-04-24T03:23:13;1.67;;;1.60;;
3527;SDS011;1778;47.966;7.854;2023-04-24T03:24:14;1.90;;;1.80;;
3527;SDS011;1778;47.966;7.854;2023-04-24T03:25:16;1.60;;;1.60;;
3527;SDS011;1778;47.966;7.854;2023-04-24T03:26:18;1.50;;;1.50;;
3527;SDS011;1778;47.966;7.854;2023-04-24T03:27:35;1.40;;;1.40;;
3527;SDS011;1778;47.966;7.854;2023-04-24T03:28:41;1.37;;;1.37;;
3527;SDS011;1778;47.966;7.854;2023-04-24T03:29:43;1.47;;;1.47;;
3527;SDS011;1778;47.966;7.854;2023-04-24T03:30:46;3.53;;;1.80;;
3527;SDS011;1778;47.966;7.854;2023-04-24T03:31:48;1.47;;;1.47;;
3527;SDS011;1778;47.966;7.854;2023-04-24T03:32:50;1.50;;;1.50;;
3527;SDS011;1778;47.966;7.854;2023-04-24T03:33:56;1.83;;;1.83;;
3527;SDS011;1778;47.966;7.854;2023-04-24T03:34:58;1.43;;;1.43;;
3527;SDS011;1778;47.966;7.854;2023-04-24T03:36:00;1.40;;;1.40;;
3527;SDS011;1778;47.966;7.854;2023-04-24T03:37:09;1.53;;;1.53;;
3527;SDS011;1778;47.966;7.854;2023-04-24T03:38:14;1.60;;;1.60;;
3527;SDS011;1778;47.966;7.854;2023-04-24T03:39:16;4.10;;;1.97;;
3527;SDS011;1778;47.966;7.854;2023-04-24T03:40:25;1.37;;;1.37;;
3527;SDS011;1778;47.966;7.854;2023-04-24T03:41:26;1.63;;;1.60;;
3527;SDS011;1778;47.966;7.854;2023-04-24T03:42:35;1.60;;;1.60;;
3527;SDS011;1778;47.966;7.854;2023-04-24T03:43:39;1.63;;;1.63;;
3527;SDS011;1778;47.966;7.854;2023-04-24T03:44:41;2.13;;;1.73;;
3527;SDS011;1778;47.966;7.854;2023-04-24T03:45:42;1.70;;;1.70;;
3527;SDS011;1778;47.966;7.854;2023-04-24T03:46:46;1.53;;;1.53;;
3527;SDS011;1778;47.966;7.854;2023-04-24T03:47:47;1.40;;;1.40;;
3527;SDS011;1778;47.966;7.854;2023-04-24T03:48:49;1.70;;;1.70;;
3527;SDS011;1778;47.966;7.854;2023-04-24T03:49:52;1.30;;;1.30;;
3527;SDS011;1778;47.966;7.854;2023-04-24T03:50:55;1.60;;;1.60;;
3527;SDS011;1778;47.966;7.854;2023-04-24T03:51:57;1.63;;;1.63;;
3527;SDS011;1778;47.966;7.854;2023-04-24T03:53:01;1.70;;;1.60;;
3527;SDS011;1778;47.966;7.854;2023-04-24T03:54:09;6.23;;;2.20;;
3527;SDS011;1778;47.966;7.854;2023-04-24T03:55:13;1.60;;;1.60;;
3527;SDS011;1778;47.966;7.854;2023-04-24T03:56:19;1.80;;;1.80;;
3527;SDS011;1778;47.966;7.854;2023-04-24T03:57:21;1.63;;;1.63;;
3527;SDS011;1778;47.966;7.854;2023-04-24T03:58:36;1.50;;;1.50;;
3527;SDS011;1778;47.966;7.854;2023-04-24T03:59:38;1.60;;;1.60;;
3527;SDS011;1778;47.966;7.854;2023-04-24T04:00:45;1.97;;;1.77;;
3527;SDS011;1778;47.966;7.854;2023-04-24T04:02:09;1.97;;;1.97;;
3527;SDS011;1778;47.966;7.854;2023-04-24T04:03:11;1.73;;;1.73;;
3527;SDS011;1778;47.966;7.854;2023-04-24T04:04:14;1.77;;;1.77;;
3527;SDS011;1778;47.966;7.854;2023-04-24T04:05:17;1.63;;;1.63;;
3527;SDS011;1778;47.966;7.854;2023-04-24T04:06:19;1.97;;;1.90;;
3527;SDS011;1778;47.966;7.854;2023-04-24T04:07:24;1.53;;;1.53;;
3527;SDS011;1778;47.966;7.854;2023-04-24T04:08:25;1.77;;;1.77;;
3527;SDS011;1778;47.966;7.854;2023-04-24T04:09:27;2.10;;;2.10;;
3527;SDS011;1778;47.966;7.854;2023-04-24T04:10:29;1.77;;;1.77;;
3527;SDS011;1778;47.966;7.854;2023-04-24T04:11:30;2.00;;;2.00;;
3527;SDS011;1778;47.966;7.854;2023-04-24T04:12:32;1.63;;;1.63;;
3527;SDS011;1778;47.966;7.854;2023-04-24T04:13:34;2.83;;;1.73;;
3527;SDS011;1778;47.966;7.854;2023-04-24T04:14:36;1.50;;;1.50;;
3527;SDS011;1778;47.966;7.854;2023-04-24T04:15:37;1.70;;;1.70;;
3527;SDS011;1778;47.966;7.854;2023-04-24T04:16:39;2.03;;;1.93;;
3527;SDS011;1778;47.966;7.854;2023-04-24T04:17:41;1.60;;;1.60;;
3527;SDS011;1778;47.966;7.854;2023-04-24T04:18:44;1.63;;;1.63;;
3527;SDS011;1778;47.966;7.854;2023-04-24T04:19:46;1.70;;;1.70;;
3527;SDS011;1778;47.966;7.854;2023-04-24T04:20:48;1.50;;;1.50;;
3527;SDS011;1778;47.966;7.854;2023-04-24T04:21:51;1.93;;;1.93;;
3527;SDS011;1778;47.966;7.854;2023-04-24T04:23:15;1.70;;;1.70;;
3527;SDS011;1778;47.966;7.854;2023-04-24T04:24:29;1.90;;;1.80;;
3527;SDS011;1778;47.966;7.854;2023-04-24T04:25:32;1.77;;;1.77;;
3527;SDS011;1778;47.966;7.854;2023-04-24T04:26:34;1.87;;;1.77;;
3527;SDS011;1778;47.966;7.854;2023-04-24T04:27:38;1.63;;;1.63;;
3527;SDS011;1778;47.966;7.854;2023-04-24T04:28:44;1.60;;;1.60;;
3527;SDS011;1778;47.966;7.854;2023-04-24T04:29:46;3.17;;;1.80;;
3527;SDS011;1778;47.966;7.854;2023-04-24T04:30:49;1.87;;;1.77;;
3527;SDS011;1778;47.966;7.854;2023-04-24T04:31:54;1.77;;;1.77;;
3527;SDS011;1778;47.966;7.854;2023-04-24T04:32:56;2.33;;;2.20;;
3527;SDS011;1778;47.966;7.854;2023-04-24T04:33:59;1.60;;;1.60;;
3527;SDS011;1778;47.966;7.854;2023-04-24T04:35:04;1.70;;;1.70;;
3527;SDS011;1778;47.966;7.854;2023-04-24T04:36:07;1.90;;;1.90;;
3527;SDS011;1778;47.966;7.854;2023-04-24T04:37:14;1.90;;;1.83;;
3527;SDS011;1778;47.966;7.854;2023-04-24T04:38:34;2.00;;;2.00;;
3527;SDS011;1778;47.966;7.854;2023-04-24T04:39:42;3.27;;;1.93;;
3527;SDS011;1778;47.966;7.854;2023-04-24T04:40:50;1.60;;;1.60;;
3527;SDS011;1778;47.966;7.854;2023-04-24T04:41:54;1.80;;;1.80;;
3527;SDS011;1778;47.966;7.854;2023-04-24T04:43:00;1.40;;;1.40;;
3527;SDS011;1778;47.966;7.854;2023-04-24T04:44:06;1.80;;;1.80;;
3527;SDS011;1778;47.966;7.854;2023-04-24T04:45:09;2.07;;;1.90;;
3527;SDS011;1778;47.966;7.854;2023-04-24T04:46:27;1.73;;;1.73;;
3527;SDS011;1778;47.966;7.854;2023-04-24T04:47:44;1.90;;;1.90;;
3527;SDS011;1778;47.966;7.854;2023-04-24T04:48:46;2.10;;;2.00;;
3527;SDS011;1778;47.966;7.854;2023-04-24T04:49:48;2.10;;;2.10;;
3527;SDS011;1778;47.966;7.854;2023-04-24T04:50:53;2.27;;;2.07;;
3527;SDS011;1778;47.966;7.854;2023-04-24T04:51:56;1.73;;;1.73;;
3527;SDS011;1778;47.966;7.854;2023-04-24T04:52:59;1.50;;;1.50;;
3527;SDS011;1778;47.966;7.854;2023-04-24T04:54:06;2.10;;;1.97;;
3527;SDS011;1778;47.966;7.854;2023-04-24T04:55:09;1.60;;;1.60;;
3527;SDS011;1778;47.966;7.854;2023-04-24T04:56:38;1.57;;;1.57;;
3527;SDS011;1778;47.966;7.854;2023-04-24T04:57:40;2.47;;;2.37;;
3527;SDS011;1778;47.966;7.854;2023-04-24T04:58:41;1.67;;;1.67;;
3527;SDS011;1778;47.966;7.854;2023-04-24T04:59:46;1.50;;;1.50;;
3527;SDS011;1778;47.966;7.854;2023-04-24T05:00:56;2.10;;;1.80;;
3527;SDS011;1778;47.966;7.854;2023-04-24T05:02:02;1.97;;;1.97;;
3527;SDS011;1778;47.966;7.854;2023-04-24T05:03:04;1.83;;;1.83;;
3527;SDS011;1778;47.966;7.854;2023-04-24T05:04:21;1.60;;;1.60;;
3527;SDS011;1778;47.966;7.854;2023-04-24T05:05:23;2.07;;;1.90;;
3527;SDS011;1778;47.966;7.854;2023-04-24T05:06:24;1.50;;;1.50;;
3527;SDS011;1778;47.966;7.854;2023-04-24T05:07:28;2.10;;;1.70;;
3527;SDS011;1778;47.966;7.854;2023-04-24T05:08:29;1.53;;;1.53;;
3527;SDS011;1778;47.966;7.854;2023-04-24T05:09:32;1.47;;;1.47;;
3527;SDS011;1778;47.966;7.854;2023-04-24T05:10:36;1.60;;;1.60;;
3527;SDS011;1778;47.966;7.854;2023-04-24T05:11:38;1.50;;;1.50;;
3527;SDS011;1778;47.966;7.854;2023-04-24T05:12:40;1.97;;;1.87;;
3527;SDS011;1778;47.966;7.854;2023-04-24T05:13:44;1.40;;;1.40;;
3527;SDS011;1778;47.966;7.854;2023-04-24T05:14:51;1.90;;;1.90;;
3527;SDS011;1778;47.966;7.854;2023-04-24T05:15:53;1.77;;;1.77;;
3527;SDS011;1778;47.966;7.854;2023-04-24T05:16:54;2.23;;;2.13;;
3527;SDS011;1778;47.966;7.854;2023-04-24T05:17:58;1.63;;;1.63;;
3527;SDS011;1778;47.966;7.854;2023-04-24T05:19:01;1.53;;;1.53;;
3527;SDS011;1778;47.966;7.854;2023-04-24T05:20:07;1.70;;;1.70;;
3527;SDS011;1778;47.966;7.854;2023-04-24T05:21:11;2.40;;;2.30;;
3527;SDS011;1778;47.966;7.854;2023-04-24T05:22:15;3.80;;;1.80;;
3527;SDS011;1778;47.966;7.854;2023-04-24T05:23:23;1.70;;;1.70;;
3527;SDS011;1778;47.966;7.854;2023-04-24T05:24:27;2.03;;;1.80;;
3527;SDS011;1778;47.966;7.854;2023-04-24T05:25:42;2.20;;;2.20;;
3527;SDS011;1778;47.966;7.854;2023-04-24T05:26:46;2.43;;;2.33;;
3527;SDS011;1778;47.966;7.854;2023-04-24T05:27:50;2.10;;;2.00;;
3527;SDS011;1778;47.966;7.854;2023-04-24T05:28:52;1.90;;;1.83;;
3527;SDS011;1778;47.966;7.854;2023-04-24T05:29:54;1.90;;;1.90;;
3527;SDS011;1778;47.966;7.854;2023-04-24T05:30:56;1.83;;;1.83;;
3527;SDS011;1778;47.966;7.854;2023-04-24T05:31:59;1.90;;;1.90;;
3527;SDS011;1778;47.966;7.854;2023-04-24T05:33:03;1.80;;;1.70;;
3527;SDS011;1778;47.966;7.854;2023-04-24T05:34:07;2.00;;;2.00;;
3527;SDS011;1778;47.966;7.854;2023-04-24T05:35:13;1.77;;;1.70;;
3527;SDS011;1778;47.966;7.854;2023-04-24T05:36:14;1.97;;;1.80;;
3527;SDS011;1778;47.966;7.854;2023-04-24T05:37:16;1.87;;;1.87;;
3527;SDS011;1778;47.966;7.854;2023-04-24T05:38:17;3.33;;;1.87;;
3527;SDS011;1778;47.966;7.854;2023-04-24T05:39:20;1.83;;;1.73;;
3527;SDS011;1778;47.966;7.854;2023-04-24T05:40:22;1.73;;;1.73;;
3527;SDS011;1778;47.966;7.854;2023-04-24T05:41:23;1.70;;;1.70;;
3527;SDS011;1778;47.966;7.854;2023-04-24T05:42:26;1.67;;;1.60;;
3527;SDS011;1778;47.966;7.854;2023-04-24T05:43:27;1.90;;;1.90;;
3527;SDS011;1778;47.966;7.854;2023-04-24T05:44:29;2.23;;;2.13;;
3527;SDS011;1778;47.966;7.854;2023-04-24T05:45:32;1.77;;;1.77;;
3527;SDS011;1778;47.966;7.854;2023-04-24T05:46:36;2.07;;;1.97;;
3527;SDS011;1778;47.966;7.854;2023-04-24T05:47:38;2.40;;;2.30;;
3527;SDS011;1778;47.966;7.854;2023-04-24T05:48:40;2.13;;;2.13;;
3527;SDS011;1778;47.966;7.854;2023-04-24T05:49:41;4.47;;;2.53;;
3527;SDS011;1778;47.966;7.854;2023-04-24T05:50:43;2.13;;;2.13;;
3527;SDS011;1778;47.966;7.854;2023-04-24T05:51:45;3.97;;;2.23;;
3527;SDS011;1778;47.966;7.854;2023-04-24T05:52:47;7.20;;;2.43;;
3527;SDS011;1778;47.966;7.854;2023-04-24T05:54:02;2.03;;;2.03;;
3527;SDS011;1778;47.966;7.854;2023-04-24T05:55:05;2.00;;;2.00;;
3527;SDS011;1778;47.966;7.854;2023-04-24T05:56:09;2.40;;;2.20;;
3527;SDS011;1778;47.966;7.854;2023-04-24T05:57:11;2.00;;;2.00;;
3527;SDS011;1778;47.966;7.854;2023-04-24T05:58:35;2.30;;;2.23;;
3527;SDS011;1778;47.966;7.854;2023-04-24T05:59:38;2.50;;;2.50;;
3527;SDS011;1778;47.966;7.854;2023-04-24T06:00:40;2.30;;;2.10;;
3527;SDS011;1778;47.966;7.854;2023-04-24T06:01:43;2.03;;;2.03;;
3527;SDS011;1778;47.966;7.854;2023-04-24T06:02:50;2.10;;;2.10;;
3527;SDS011;1778;47.966;7.854;2023-04-24T06:03:54;2.00;;;2.00;;
3527;SDS011;1778;47.966;7.854;2023-04-24T06:04:58;1.83;;;1.83;;
3527;SDS011;1778;47.966;7.854;2023-04-24T06:06:00;2.20;;;2.20;;
3527;SDS011;1778;47.966;7.854;2023-04-24T06:07:02;2.00;;;2.00;;
3527;SDS011;1778;47.966;7.854;2023-04-24T06:08:04;1.70;;;1.70;;
3527;SDS011;1778;47.966;7.854;2023-04-24T06:09:09;2.27;;;2.27;;
3527;SDS011;1778;47.966;7.854;2023-04-24T06:10:11;1.87;;;1.87;;
3527;SDS011;1778;47.966;7.854;2023-04-24T06:11:15;2.30;;;2.20;;
3527;SDS011;1778;47.966;7.854;2023-04-24T06:12:18;2.00;;;2.00;;
3527;SDS011;1778;47.966;7.854;2023-04-24T06:13:31;2.37;;;2.27;;
3527;SDS011;1778;47.966;7.854;2023-04-24T06:14:58;6.13;;;2.47;;
3527;SDS011;1778;47.966;7.854;2023-04-24T06:16:11;2.17;;;2.07;;
3527;SDS011;1778;47.966;7.854;2023-04-24T06:17:15;2.20;;;2.20;;
3527;SDS011;1778;47.966;7.854;2023-04-24T06:18:19;1.90;;;1.90;;
3527;SDS011;1778;47.966;7.854;2023-04-24T06:19:21;2.07;;;2.07;;
3527;SDS011;1778;47.966;7.854;2023-04-24T06:20:24;2.00;;;2.00;;
3527;SDS011;1778;47.966;7.854;2023-04-24T06:21:25;2.00;;;2.00;;
3527;SDS011;1778;47.966;7.854;2023-04-24T06:22:29;3.07;;;2.10;;
3527;SDS011;1778;47.966;7.854;2023-04-24T06:23:30;3.13;;;1.70;;
3527;SDS011;1778;47.966;7.854;2023-04-24T06:24:34;2.20;;;2.20;;
3527;SDS011;1778;47.966;7.854;2023-04-24T06:25:35;3.20;;;2.80;;
3527;SDS011;1778;47.966;7.854;2023-04-24T06:26:37;2.10;;;2.10;;
3527;SDS011;1778;47.966;7.854;2023-04-24T06:27:41;2.73;;;2.63;;
3527;SDS011;1778;47.966;7.854;2023-04-24T06:28:42;2.03;;;2.03;;
3527;SDS011;1778;47.966;7.854;2023-04-24T06:29:44;3.23;;;1.93;;
3527;SDS011;1778;47.966;7.854;2023-04-24T06:30:46;2.13;;;2.13;;
3527;SDS011;1778;47.966;7.854;2023-04-24T06:31:48;2.23;;;2.23;;
3527;SDS011;1778;47.966;7.854;2023-04-24T06:32:50;2.10;;;2.10;;
3527;SDS011;1778;47.966;7.854;2023-04-24T06:33:52;1.90;;;1.90;;